• Join FlightAware (Why Join?)
  • Login
  • US Flag 
04:14AM EDT


 

Airport Tracker/Info


-or-


 

Live Flight TrackerFlight Track Log ✈ N631TS ✈ 06-Sep-2013 ✈ KDIK - KBIS

Flight Track Log - Related Links

Times and Time Zones

All times are in EDT time to prevent confusion due to time zone crossing. See the N631TS flight status page for this flight to view local times or setup timezone preferences in your user account.

Time Position Orientation Groundspeed Altitude Reporting Facility
EDT Latitude Longitude Course Direction KTS MPH feet Rate Location/Type
03:22PM 47.7440 -101.0904 121° Southeast  Level Estimated
03:22PM 48.0226 -100.5683 121° Southeast  Level Estimated
03:22PM 48.2047 -100.9472 116° Southeast 242 278 10,600  Level Minneapolis Center
03:22PM 48.2047 -100.9472 116° Southeast 242 278 10,600 1,140 Level Minneapolis Center
03:23PM 47.6584 -101.0595 119° Southeast  Level Estimated
03:23PM 47.9830 -100.4506 119° Southeast  Level Estimated
03:23PM 48.1694 -100.8564 120° Southeast 259 298 11,800  Level Minneapolis Center
03:23PM 48.1694 -100.8564 120° Southeast 259 298 11,800 1,500 Level Minneapolis Center
03:24PM 47.6585 -100.9286 90° East  Level FlightAware Approximate
03:24PM 47.9421 -100.3340 118° Southeast  Level FlightAware Approximate
03:24PM 48.1372 -100.7625 117° Southeast 256 295 13,400  Level Minneapolis Center
03:24PM 48.1372 -100.7625 117° Southeast 256 295 13,400 1,020 Level Minneapolis Center
03:25PM 47.9023 -100.2167 116° Southeast  Level Estimated
03:25PM 47.5712 -100.9103 116° Southeast  Level Estimated
03:25PM 48.1061 -100.6658 116° Southeast 258 297 14,500  Level Minneapolis Center
03:25PM 48.1061 -100.6658 116° Southeast 258 297 14,500 1,320 Level Minneapolis Center
03:26PM 47.8624 -100.0996 110° East  Level Estimated
03:26PM 47.4840 -100.8921 110° East  Level Estimated
03:26PM 48.0622 -100.5408 118° Southeast 279 321 15,900  Level Minneapolis Center
03:26PM 48.0622 -100.5408 118° Southeast 279 321 15,900 840 Level Minneapolis Center
03:27PM 48.0258 -100.4347 117° Southeast 285 328 16,800 840 Climbing Minneapolis Center
03:27PM 48.0258 -100.4347 117° Southeast 285 328 16,800 840 Level Minneapolis Center
03:28PM 47.9900 -100.3242 116° Southeast 294 338 17,700 840 Climbing Minneapolis Center
03:28PM 47.9900 -100.3242 116° Southeast 294 338 17,700 960 Level Minneapolis Center
03:29PM 47.9497 -100.2144 119° Southeast 300 345 18,700 960 Climbing Minneapolis Center
03:29PM 47.9497 -100.2144 119° Southeast 300 345 18,700 1,020 Level Minneapolis Center
03:30PM 47.9122 -100.1053 117° Southeast 299 344 19,800 1,020 Climbing Minneapolis Center
03:30PM 47.9122 -100.1053 117° Southeast 299 344 19,800 840 Level Minneapolis Center
03:31PM 47.8750 -99.9958 117° Southeast 298 343 20,700 840 Climbing Minneapolis Center
03:31PM 47.8750 -99.9958 117° Southeast 298 343 20,700 1,440 Level Minneapolis Center
03:32PM 47.8300 -99.8664 117° Southeast 296 341 22,200 1,440 Climbing Minneapolis Center
03:32PM 47.8300 -99.8664 117° Southeast 296 341 22,200 720 Level Minneapolis Center
03:33PM 47.7936 -99.7589 117° Southeast 294 338 23,000 720 Climbing Minneapolis Center
03:33PM 47.7936 -99.7589 117° Southeast 294 338 23,000 1,020 Level Minneapolis Center
03:34PM 47.7556 -99.6522 118° Southeast 294 338 24,100 1,020 Climbing Minneapolis Center
03:34PM 47.7556 -99.6522 118° Southeast 294 338 24,100 840 Level Minneapolis Center
03:35PM 47.7178 -99.5461 118° Southeast 292 336 25,000 840 Climbing Minneapolis Center
03:35PM 47.7178 -99.5461 118° Southeast 292 336 25,000 660 Level Minneapolis Center
03:36PM 47.6800 -99.4375 117° Southeast 295 339 25,700 660 Climbing Minneapolis Center
03:36PM 47.6800 -99.4375 117° Southeast 295 339 25,700 720 Level Minneapolis Center
03:37PM 47.6400 -99.3281 118° Southeast 300 345 26,500 720 Climbing Minneapolis Center
03:37PM 47.6400 -99.3281 118° Southeast 300 345 26,500 1,020 Level Minneapolis Center
03:38PM 47.5917 -99.1942 118° Southeast 306 352 27,600 1,020 Climbing Minneapolis Center
03:38PM 47.5917 -99.1942 118° Southeast 306 352 27,600 720 Level Minneapolis Center
03:39PM 47.5522 -99.0853 118° Southeast 304 350 28,400 720 Climbing Minneapolis Center
03:39PM 47.5522 -99.0853 118° Southeast 304 350 28,400 540 Level Minneapolis Center
03:40PM 47.5125 -98.9772 119° Southeast 302 348 29,000 540 Climbing Minneapolis Center
03:40PM 47.5125 -98.9772 119° Southeast 302 348 29,000 660 Level Minneapolis Center
03:41PM 47.4725 -98.8658 118° Southeast 305 351 29,700 660 Climbing Minneapolis Center
03:41PM 47.4725 -98.8658 118° Southeast 305 351 29,700 540 Level Minneapolis Center
03:42PM 47.4306 -98.7531 119° Southeast 312 359 30,300 540 Climbing Minneapolis Center
03:42PM 47.4306 -98.7531 119° Southeast 312 359 30,300 480 Level Minneapolis Center
03:43PM 47.3806 -98.6164 118° Southeast 315 362 30,800 480 Climbing Minneapolis Center
03:43PM 47.3806 -98.6164 118° Southeast 315 362 30,800  Level Minneapolis Center
03:48PM 47.1344 -97.9594 119° Southeast 372 428 31,000  Climbing Minneapolis Center
03:49PM 47.0842 -97.8256 119° Southeast 378 435 31,000  Level Minneapolis Center
03:50PM 47.0331 -97.6931 119° Southeast 377 434 31,000  Level Minneapolis Center
03:52PM 46.9819 -97.5583 119° Southeast 379 436 31,000  Level Minneapolis Center
03:53PM 46.9297 -97.4236 120° Southeast 383 441 31,000  Level Minneapolis Center
03:54PM 46.8669 -97.2622 120° Southeast 382 440 31,000  Level Minneapolis Center
03:55PM 46.8147 -97.1281 120° Southeast 381 438 31,000  Level Minneapolis Center
03:56PM 46.7622 -96.9953 120° Southeast 381 438 31,000  Level Minneapolis Center
03:57PM 46.7106 -96.8622 119° Southeast 380 437 31,000  Level Minneapolis Center
03:58PM 46.6581 -96.7303 120° Southeast 379 436 31,000  Level Minneapolis Center
03:59PM 46.5944 -96.5758 121° Southeast 375 432 31,000  Level Minneapolis Center
04:00PM 46.5428 -96.4436 120° Southeast 376 433 31,000  Level Minneapolis Center
04:01PM 46.4900 -96.3117 120° Southeast 378 435 31,000  Level Minneapolis Center
04:02PM 46.4367 -96.1819 121° Southeast 376 433 31,000  Level Minneapolis Center
04:03PM 46.3850 -96.0497 119° Southeast 378 435 31,000  Level Minneapolis Center
04:04PM 46.3206 -95.8944 121° Southeast 377 434 31,000  Level Minneapolis Center
04:05PM 46.2728 -95.7769 120° Southeast 377 434 31,000  Level Minneapolis Center
04:06PM 46.2197 -95.6483 121° Southeast 374 430 31,000 -660 Level Minneapolis Center
04:07PM 46.1539 -95.4911 121° Southeast 380 437 29,700 -2,040 Descending Minneapolis Center
04:08PM 46.0961 -95.3511 121° Southeast 400 460 26,800 -2,640 Descending Minneapolis Center
04:09PM 46.0411 -95.2164 120° Southeast 396 456 24,300 -2,520 Descending Minneapolis Center
04:10PM 45.9883 -95.0900 121° Southeast 378 435 21,600 -2,640 Descending Minneapolis Center
04:11PM 45.9286 -94.9478 121° Southeast 367 422 18,900 -2,220 Descending Minneapolis Center
04:12PM 45.8789 -94.8297 121° Southeast 355 409 17,100 -1,980 Descending Minneapolis Center
04:13PM 45.8325 -94.7189 121° Southeast 336 387 14,900 -2,400 Descending Minneapolis Center
04:14PM 45.7856 -94.6103 122° Southeast 327 376 12,200 -2,580 Descending Minneapolis Center
04:15PM 45.7428 -94.5019 119° Southeast 321 369 9,600 -2,340 Descending Minneapolis Center
04:16PM 45.6997 -94.4036 122° Southeast 309 356 7,400 -2,040 Descending Minneapolis Center
04:17PM 45.6508 -94.2986 124° Southeast 283 326 5,400 -1,920 Descending Minneapolis Center
04:18PM 45.6194 -94.2103 117° Southeast 265 305 3,500 -1,200 Descending Minneapolis Center
04:19PM 45.5906 -94.1264 116° Southeast 261 300 3,000 -540 Descending Minneapolis Center
04:21PM 45.5333 -94.0500 115° Southeast  Level FlightAware Approximate
04:28PM 45.7143 -94.8932 115° Southeast  Level Estimated
04:29PM 45.7396 -95.0142 115° Southeast  Level Estimated
04:30PM 45.7649 -95.1352 115° Southeast  Level Estimated
04:31PM 45.7899 -95.2563 115° Southeast  Level Estimated
04:32PM 45.8149 -95.3775 115° Southeast  Level Estimated
04:33PM 45.8397 -95.4989 115° Southeast  Level Estimated
04:34PM 45.8644 -95.6203 115° Southeast  Level Estimated
04:35PM 45.8890 -95.7419 115° Southeast  Level Estimated
04:36PM 45.9134 -95.8635 115° Southeast  Level Estimated
04:37PM 45.9378 -95.9853 115° Southeast  Level Estimated
04:38PM 45.9620 -96.1072 115° Southeast  Level Estimated
04:39PM 45.9860 -96.2292 115° Southeast  Level Estimated
04:40PM 46.0099 -96.3512 115° Southeast  Level Estimated
04:41PM 46.0337 -96.4734 115° Southeast  Level Estimated
04:42PM 46.0574 -96.5957 115° Southeast  Level Estimated
04:43PM 46.0810 -96.7182 115° Southeast  Level Estimated
04:44PM 46.1044 -96.8407 115° Southeast  Level Estimated
04:45PM 46.1276 -96.9633 115° Southeast  Level Estimated
04:46PM 46.1508 -97.0860 115° Southeast  Level Estimated
04:47PM 46.1738 -97.2088 115° Southeast  Level Estimated
04:48PM 46.1967 -97.3317 115° Southeast  Level Estimated
04:49PM 46.2194 -97.4548 115° Southeast  Level Estimated
04:50PM 46.2420 -97.5779 115° Southeast  Level Estimated
04:51PM 46.2645 -97.7011 115° Southeast  Level Estimated
04:52PM 46.2869 -97.8244 115° Southeast  Level Estimated
04:53PM 46.3091 -97.9479 115° Southeast  Level Estimated
04:54PM 46.3312 -98.0714 115° Southeast  Level Estimated
04:55PM 46.3531 -98.1950 115° Southeast  Level Estimated
04:56PM 46.3749 -98.3188 115° Southeast  Level Estimated
04:57PM 46.3966 -98.4426 115° Southeast  Level Estimated
04:58PM 46.4182 -98.5665 115° Southeast  Level Estimated
04:59PM 46.4396 -98.6905 115° Southeast  Level Estimated
05:00PM 46.4609 -98.8147 115° Southeast  Level Estimated
05:01PM 46.4820 -98.9389 115° Southeast  Level Estimated
05:02PM 46.5030 -99.0632 115° Southeast  Level Estimated
05:03PM 46.5239 -99.1876 115° Southeast  Level Estimated
05:04PM 46.5447 -99.3121 115° Southeast  Level Estimated
05:05PM 46.5653 -99.4367 115° Southeast  Level Estimated
05:06PM 46.5857 -99.5614 115° Southeast  Level Estimated
05:07PM 46.6061 -99.6862 115° Southeast  Level Estimated
05:08PM 46.6263 -99.8111 115° Southeast  Level Estimated
05:09PM 46.6464 -99.9360 115° Southeast  Level Estimated
05:10PM 46.6663 -100.0611 115° Southeast  Level Estimated
05:11PM 46.6861 -100.1862 115° Southeast  Level Estimated
05:12PM 46.7057 -100.3115 115° Southeast  Level Estimated
05:13PM 46.7253 -100.4368 115° Southeast  Level Estimated